Time,TemperatureF,DewpointF,PressureIn,WindDirection,WindDirectionDegrees,WindSpeedMPH,WindSpeedGustMPH,Humidity,HourlyPrecipIn,Conditions,Clouds,dailyrainin,SoftwareType,DateUTC
2013-08-29 00:00:00,70.3,66.2,29.93,SSE,148,0.0,3.0,87,0.00,,SKC,0.00,VWS V14.01,2013-08-29 04:00:00,
2013-08-29 00:30:00,70.1,66.4,29.94,SE,142,0.0,3.0,88,0.00,,SKC,0.00,VWS V14.01,2013-08-29 04:30:00,
2013-08-29 01:00:00,69.9,66.5,29.93,SE,144,0.0,2.0,89,0.00,,SKC,0.00,VWS V14.01,2013-08-29 05:00:00,
2013-08-29 01:30:00,70.1,67.0,29.92,East,84,4.0,4.0,90,0.00,,SKC,0.00,VWS V14.01,2013-08-29 05:30:00,
2013-08-29 02:00:00,70.5,67.1,29.92,SW,234,0.0,4.0,89,0.00,,SKC,0.00,VWS V14.01,2013-08-29 06:00:00,
2013-08-29 02:30:00,70.3,67.2,29.90,SSE,160,1.0,5.0,90,0.00,,SKC,0.00,VWS V14.01,2013-08-29 06:30:00,
2013-08-29 03:00:00,70.1,67.0,29.90,ESE,110,0.0,6.0,90,0.00,,SKC,0.00,VWS V14.01,2013-08-29 07:00:00,
2013-08-29 03:30:00,69.9,67.2,29.90,NNE,32,0.0,5.0,91,0.00,,SKC,0.00,VWS V14.01,2013-08-29 07:30:00,
2013-08-29 04:00:00,69.3,66.9,29.91,SE,138,1.0,4.0,92,0.00,,SKC,0.00,VWS V14.01,2013-08-29 08:00:00,
2013-08-29 04:30:00,68.6,66.8,29.92,South,184,0.0,2.0,94,0.00,,SKC,0.00,VWS V14.01,2013-08-29 08:30:00,
2013-08-29 05:00:00,67.7,66.2,29.92,East,100,0.0,1.0,95,0.00,,SKC,0.00,VWS V14.01,2013-08-29 09:00:00,
2013-08-29 05:30:00,67.6,66.4,29.92,SE,146,0.0,3.0,96,0.00,,SKC,0.00,VWS V14.01,2013-08-29 09:30:00,
2013-08-29 06:00:00,67.1,65.9,29.93,SE,137,0.0,1.0,96,0.00,,SKC,0.00,VWS V14.01,2013-08-29 10:00:00,
2013-08-29 06:30:00,66.6,65.7,29.94,SSE,155,0.0,1.0,97,0.00,,SKC,0.00,VWS V14.01,2013-08-29 10:30:00,
2013-08-29 07:00:00,65.8,65.2,29.95,SE,136,0.0,1.0,98,0.00,,SKC,0.00,VWS V14.01,2013-08-29 11:00:00,
2013-08-29 07:30:00,65.5,64.9,29.96,SE,136,0.0,0.0,98,0.00,,SKC,0.00,VWS V14.01,2013-08-29 11:30:00,
2013-08-29 08:00:00,66.1,65.5,29.97,SE,136,0.0,0.0,98,0.00,,SKC,0.00,VWS V14.01,2013-08-29 12:00:00,
2013-08-29 08:30:00,72.9,69.8,29.97,West,263,0.0,1.0,90,0.00,,SKC,0.00,VWS V14.01,2013-08-29 12:30:00,
2013-08-29 09:00:00,76.4,69.8,29.97,ESE,103,0.0,3.0,80,0.00,,SKC,0.00,VWS V14.01,2013-08-29 13:00:00,
2013-08-29 09:30:00,76.8,69.8,29.97,ENE,78,1.0,8.0,79,0.00,,SKC,0.00,VWS V14.01,2013-08-29 13:30:00,
2013-08-29 10:00:00,79.6,71.8,29.95,South,179,1.0,6.0,77,0.00,,SKC,0.00,VWS V14.01,2013-08-29 14:00:00,
2013-08-29 10:30:00,81.0,71.1,29.96,East,91,6.0,6.0,72,0.00,,SKC,0.00,VWS V14.01,2013-08-29 14:30:00,
2013-08-29 11:00:00,81.9,71.2,29.97,SE,128,2.0,9.0,70,0.00,,SKC,0.00,VWS V14.01,2013-08-29 15:00:00,
2013-08-29 11:30:00,81.0,69.4,29.97,East,91,0.0,6.0,68,0.00,,SKC,0.00,VWS V14.01,2013-08-29 15:30:00,
2013-08-29 12:00:00,82.8,69.8,29.97,ENE,77,1.0,5.0,65,0.00,,SKC,0.00,VWS V14.01,2013-08-29 16:00:00,
2013-08-29 12:30:00,83.4,69.5,29.97,West,278,0.0,4.0,63,0.00,,SKC,0.00,VWS V14.01,2013-08-29 16:30:00,
2013-08-29 13:00:00,83.6,70.1,29.96,South,170,1.0,6.0,64,0.00,,SKC,0.00,VWS V14.01,2013-08-29 17:00:00,
2013-08-29 13:30:00,82.5,66.7,29.96,East,90,0.0,5.0,59,0.00,,SKC,0.00,VWS V14.01,2013-08-29 17:30:00,
2013-08-29 14:00:00,83.2,68.4,29.96,SE,126,0.0,4.0,61,0.00,,SKC,0.00,VWS V14.01,2013-08-29 18:00:00,
2013-08-29 14:30:00,83.7,67.9,29.95,SW,231,0.0,3.0,59,0.00,,SKC,0.00,VWS V14.01,2013-08-29 18:30:00,
2013-08-29 15:00:00,84.8,68.9,29.94,SE,129,0.0,3.0,59,0.00,,SKC,0.00,VWS V14.01,2013-08-29 19:00:00,
2013-08-29 15:30:00,81.5,67.2,29.93,ESE,108,0.0,3.0,62,0.00,,SKC,0.00,VWS V14.01,2013-08-29 19:30:00,
2013-08-29 16:00:00,81.0,68.1,29.93,East,85,0.0,1.0,65,0.00,,SKC,0.00,VWS V14.01,2013-08-29 20:00:00,
2013-08-29 16:30:00,80.4,69.3,29.93,ENE,60,0.0,3.0,69,0.00,,SKC,0.00,VWS V14.01,2013-08-29 20:30:00,
2013-08-29 17:00:00,78.8,70.6,29.94,NE,55,0.0,2.0,76,0.00,,SKC,0.00,VWS V14.01,2013-08-29 21:00:00,
2013-08-29 17:30:00,77.8,71.1,29.94,ENE,75,0.0,3.0,80,0.00,,SKC,0.00,VWS V14.01,2013-08-29 21:30:00,
2013-08-29 18:00:00,76.8,70.9,29.93,North,8,0.0,1.0,82,0.00,,SKC,0.00,VWS V14.01,2013-08-29 22:00:00,
2013-08-29 18:30:00,76.1,71.3,29.94,SSE,157,0.0,4.0,85,0.00,,SKC,0.00,VWS V14.01,2013-08-29 22:30:00,
2013-08-29 19:00:00,74.1,69.7,29.94,South,173,1.0,5.0,86,0.00,,SKC,0.00,VWS V14.01,2013-08-29 23:00:00,
2013-08-29 19:30:00,73.3,69.5,29.96,SSE,160,1.0,6.0,88,0.00,,SKC,0.00,VWS V14.01,2013-08-29 23:30:00,
2013-08-29 20:00:00,72.4,69.6,29.97,ESE,103,1.0,6.0,91,0.00,,SKC,0.00,VWS V14.01,2013-08-30 00:00:00,
2013-08-29 20:30:00,71.9,70.1,29.98,West,259,0.0,4.0,94,0.00,,SKC,0.00,VWS V14.01,2013-08-30 00:30:00,
2013-08-29 21:00:00,70.8,69.3,29.98,South,180,0.0,1.0,95,0.01,,SKC,0.01,VWS V14.01,2013-08-30 01:00:00,
2013-08-29 21:30:00,70.5,69.3,30.00,SSE,148,0.0,1.0,96,0.01,,SKC,0.01,VWS V14.01,2013-08-30 01:30:00,
2013-08-29 22:00:00,69.5,68.3,30.01,SE,128,0.0,6.0,96,0.01,,SKC,0.01,VWS V14.01,2013-08-30 02:00:00,
2013-08-29 22:30:00,69.2,68.0,30.02,South,181,0.0,6.0,96,0.07,,SKC,0.08,VWS V14.01,2013-08-30 02:30:00,
2013-08-29 23:00:00,68.9,67.7,30.01,WSW,253,0.0,4.0,96,0.09,,SKC,0.10,VWS V14.01,2013-08-30 03:00:00,
2013-08-29 23:30:00,68.7,67.5,30.01,South,172,3.0,7.0,96,0.09,,SKC,0.10,VWS V14.01,2013-08-30 03:30:00,